createdAt,value
2018-06-24T00:01:58.600Z,102560.17
2018-06-24T00:05:01.675Z,102560.75
2018-06-24T00:08:03.795Z,102554.40
2018-06-24T00:11:06.088Z,102560.45
2018-06-24T00:14:08.195Z,102558.44
2018-06-24T00:17:10.227Z,102559.86
2018-06-24T00:20:12.312Z,102558.62
2018-06-24T00:23:14.367Z,102556.28
2018-06-24T00:26:16.353Z,102556.35
2018-06-24T00:29:18.417Z,102548.92
2018-06-24T00:32:20.746Z,102542.38
2018-06-24T00:35:22.847Z,102546.81
2018-06-24T00:38:24.916Z,102542.18
2018-06-24T00:41:27.095Z,102533.40
2018-06-24T00:44:29.128Z,102531.08
2018-06-24T00:47:31.264Z,102528.13
2018-06-24T00:50:33.362Z,102525.82
2018-06-24T00:53:35.312Z,102525.48
2018-06-24T00:56:37.435Z,102521.41
2018-06-24T00:59:51.138Z,102520.01
2018-06-24T01:02:53.279Z,102513.68
2018-06-24T01:05:55.341Z,102514.90
2018-06-24T01:08:57.387Z,102518.56
2018-06-24T01:11:59.492Z,102515.80
2018-06-24T01:15:02.695Z,102513.82
2018-06-24T01:18:04.832Z,102510.56
2018-06-24T01:21:06.952Z,102512.85
2018-06-24T01:24:09.095Z,102507.25
2018-06-24T01:27:11.155Z,102506.30
2018-06-24T01:30:13.204Z,102499.75
2018-06-24T01:33:16.311Z,102494.35
2018-06-24T01:36:18.373Z,102496.86
2018-06-24T01:39:20.416Z,102496.66
2018-06-24T01:42:22.599Z,102494.41
2018-06-24T01:45:24.680Z,102491.86
2018-06-24T01:48:26.814Z,102498.22
2018-06-24T01:51:29.071Z,102496.34
2018-06-24T01:54:32.219Z,102497.37
2018-06-24T01:57:34.271Z,102494.66
2018-06-24T02:00:36.323Z,102493.10
2018-06-24T02:03:38.423Z,102488.28
2018-06-24T02:06:40.506Z,102483.90
2018-06-24T02:09:42.581Z,102485.70
2018-06-24T02:12:44.630Z,102488.92
2018-06-24T02:15:46.694Z,102491.78
2018-06-24T02:18:49.820Z,102483.28
2018-06-24T02:21:51.912Z,102483.77
2018-06-24T02:24:53.864Z,102483.31
2018-06-24T02:27:55.909Z,102483.54
2018-06-24T02:30:57.987Z,102483.35
2018-06-24T02:34:00.118Z,102480.29
2018-06-24T02:37:03.369Z,102480.08
2018-06-24T02:40:05.528Z,102474.42
2018-06-24T02:43:07.583Z,102472.62
2018-06-24T02:46:09.715Z,102471.02
2018-06-24T02:49:11.829Z,102469.76
2018-06-24T02:52:13.843Z,102465.48
2018-06-24T02:55:15.759Z,102468.22
2018-06-24T02:58:17.803Z,102466.33
2018-06-24T03:01:19.897Z,102467.97
2018-06-24T03:04:22.051Z,102460.42
2018-06-24T03:07:24.127Z,102459.63
2018-06-24T03:10:26.164Z,102458.96
2018-06-24T03:13:28.276Z,102455.78
2018-06-24T03:16:30.340Z,102456.57
2018-06-24T03:19:33.110Z,102460.28
2018-06-24T03:22:35.079Z,102466.22
2018-06-24T03:25:37.169Z,102465.06
2018-06-24T03:28:39.196Z,102458.72
2018-06-24T03:31:48.879Z,102468.83
2018-06-24T03:34:50.965Z,102459.67
2018-06-24T03:37:52.995Z,102457.11
2018-06-24T03:40:55.100Z,102451.43
2018-06-24T03:43:57.152Z,102451.96
2018-06-24T03:46:59.236Z,102463.02
2018-06-24T03:50:01.295Z,102471.57
2018-06-24T03:53:04.008Z,102472.90
2018-06-24T03:56:06.070Z,102470.06
2018-06-24T03:59:12.099Z,102474.08
2018-06-24T04:02:14.332Z,102476.30
2018-06-24T04:05:16.252Z,102476.69
2018-06-24T04:08:18.337Z,102471.08
2018-06-24T04:11:20.481Z,102480.58
2018-06-24T04:14:22.543Z,102484.14
2018-06-24T04:17:24.699Z,102476.06
2018-06-24T04:20:26.775Z,102469.56
2018-06-24T04:23:28.843Z,102467.08
2018-06-24T04:26:30.810Z,102469.16
2018-06-24T04:29:33.563Z,102465.47
2018-06-24T04:32:35.708Z,102463.68
2018-06-24T04:35:37.630Z,102469.19
2018-06-24T04:38:39.711Z,102462.14
2018-06-24T04:41:41.776Z,102464.81
2018-06-24T04:44:43.865Z,102467.16
2018-06-24T04:47:45.911Z,102469.07
2018-06-24T04:50:48.171Z,102474.37
2018-06-24T04:53:50.135Z,102468.54
2018-06-24T04:56:52.257Z,102465.92
2018-06-24T04:59:54.275Z,102462.43
2018-06-24T05:02:56.377Z,102458.07
2018-06-24T05:05:59.459Z,102457.99
2018-06-24T05:09:02.765Z,102461.49
2018-06-24T05:12:04.843Z,102459.97
2018-06-24T05:15:06.807Z,102454.14
2018-06-24T05:18:08.847Z,102454.52
2018-06-24T05:21:10.948Z,102454.81
2018-06-24T05:24:13.304Z,102455.69
2018-06-24T05:27:15.395Z,102453.25
2018-06-24T05:30:17.831Z,102456.90
2018-06-24T05:33:19.526Z,102451.63
2018-06-24T05:36:22.700Z,102448.00
2018-06-24T05:39:24.872Z,102445.36
2018-06-24T05:42:26.927Z,102443.91
2018-06-24T05:45:29.035Z,102444.35
2018-06-24T05:48:31.543Z,102449.89
2018-06-24T05:51:34.787Z,102452.77
2018-06-24T05:54:36.781Z,102450.89
2018-06-24T05:57:38.802Z,102448.34
2018-06-24T06:00:40.943Z,102450.87
2018-06-24T06:03:43.078Z,102453.79
2018-06-24T06:06:45.216Z,102452.45
2018-06-24T06:09:47.333Z,102454.76
2018-06-24T06:12:49.501Z,102455.43
2018-06-24T06:15:51.629Z,102460.24
2018-06-24T06:18:53.716Z,102460.57
2018-06-24T06:21:55.789Z,102457.49
2018-06-24T06:24:57.739Z,102458.99
2018-06-24T06:27:59.703Z,102461.42
2018-06-24T06:31:01.707Z,102457.37
2018-06-24T06:34:04.890Z,102454.63
2018-06-24T06:37:06.995Z,102453.90
2018-06-24T06:40:09.245Z,102452.70
2018-06-24T06:43:11.292Z,102443.60
2018-06-24T06:46:13.727Z,102441.49
2018-06-24T06:49:15.871Z,102446.47
2018-06-24T06:52:19.442Z,102441.52
2018-06-24T06:55:21.356Z,102448.39
2018-06-24T06:58:23.778Z,102447.66
2018-06-24T07:01:25.919Z,102444.29
2018-06-24T07:04:28.451Z,102441.51
2018-06-24T07:07:30.844Z,102448.70
2018-06-24T07:10:35.543Z,102443.93
2018-06-24T07:13:37.951Z,102445.35
2018-06-24T07:16:40.011Z,102439.38
2018-06-24T07:19:42.543Z,102435.41
2018-06-24T07:22:44.977Z,102437.10
2018-06-24T07:25:47.012Z,102431.31
2018-06-24T07:28:49.576Z,102429.01
2018-06-24T07:31:52.109Z,102419.35
2018-06-24T07:34:54.053Z,102424.31
2018-06-24T07:37:56.088Z,102427.02
2018-06-24T07:40:58.105Z,102424.38
2018-06-24T07:44:00.147Z,102425.26
2018-06-24T07:47:03.668Z,102420.87
2018-06-24T07:50:05.758Z,102424.22
2018-06-24T07:53:09.148Z,102421.14
2018-06-24T07:56:11.712Z,102415.11
2018-06-24T07:59:13.776Z,102420.00
2018-06-24T08:02:16.265Z,102415.44
2018-06-24T08:05:18.969Z,102413.52
2018-06-24T08:08:21.359Z,102418.96
2018-06-24T08:11:23.876Z,102421.04
2018-06-24T08:14:27.010Z,102426.54
2018-06-24T08:17:29.348Z,102421.35
2018-06-24T08:20:31.851Z,102424.01
2018-06-24T08:23:35.314Z,102431.67
2018-06-24T08:26:37.402Z,102427.24
2018-06-24T08:29:39.487Z,102424.26
2018-06-24T08:32:41.993Z,102426.77
2018-06-24T08:35:44.443Z,102412.82
2018-06-24T08:38:46.487Z,102413.40
2018-06-24T08:41:49.068Z,102413.31
2018-06-24T08:44:51.384Z,102411.13
2018-06-24T08:47:54.124Z,102412.79
2018-06-24T08:50:56.696Z,102415.70
2018-06-24T08:53:59.115Z,102417.67
2018-06-24T08:57:01.151Z,102408.57
2018-06-24T09:00:04.243Z,102408.64
2018-06-24T09:03:06.645Z,102410.25
2018-06-24T09:06:09.308Z,102408.90
2018-06-24T09:09:11.711Z,102413.42
2018-06-24T09:12:14.547Z,102408.85
2018-06-24T09:15:16.764Z,102406.77
2018-06-24T09:18:19.275Z,102409.15
2018-06-24T09:21:21.739Z,102408.51
2018-06-24T09:24:24.297Z,102407.06
2018-06-24T09:27:26.683Z,102406.75
2018-06-24T09:30:28.863Z,102404.26
2018-06-24T09:33:31.410Z,102397.99
2018-06-24T09:36:35.361Z,102394.52
2018-06-24T09:39:37.428Z,102390.16
2018-06-24T09:42:40.000Z,102389.12
2018-06-24T09:45:42.498Z,102390.00
2018-06-24T09:48:46.020Z,102389.50
2018-06-24T09:51:47.985Z,102383.98
2018-06-24T09:54:56.553Z,102383.89
2018-06-24T09:57:59.067Z,102382.79
2018-06-24T10:01:01.633Z,102381.20
2018-06-24T10:04:06.067Z,102377.04
2018-06-24T10:07:10.607Z,102380.96
2018-06-24T10:10:12.641Z,102377.70
2018-06-24T10:13:14.710Z,102373.01
2018-06-24T10:16:17.242Z,102374.25
2018-06-24T10:19:20.189Z,102376.05
2018-06-24T10:22:22.727Z,102376.89
2018-06-24T10:25:25.170Z,102371.53
2018-06-24T10:28:27.211Z,102367.43
2018-06-24T10:31:29.285Z,102360.04
2018-06-24T10:34:31.798Z,102357.34
2018-06-24T10:37:35.178Z,102356.12
2018-06-24T10:40:37.407Z,102354.58
2018-06-24T10:43:39.879Z,102361.64
2018-06-24T10:46:42.489Z,102356.79
2018-06-24T10:49:44.886Z,102353.91
2018-06-24T10:52:47.332Z,102351.19
2018-06-24T10:55:49.404Z,102352.04
2018-06-24T10:58:52.400Z,102352.26
2018-06-24T11:01:54.583Z,102348.33
2018-06-24T11:04:57.315Z,102354.76
2018-06-24T11:07:59.419Z,102349.87
2018-06-24T11:11:01.548Z,102350.81
2018-06-24T11:14:03.761Z,102347.06
2018-06-24T11:17:05.931Z,102337.75
2018-06-24T11:20:08.111Z,102338.41
2018-06-24T11:23:10.173Z,102338.08
2018-06-24T11:26:12.111Z,102329.66
2018-06-24T11:29:14.665Z,102315.61
2018-06-24T11:32:17.178Z,102315.05
2018-06-24T11:35:20.253Z,102312.61
2018-06-24T11:38:22.450Z,102315.10
2018-06-24T11:41:24.603Z,102310.94
2018-06-24T11:44:26.712Z,102306.87
2018-06-24T11:47:28.981Z,102300.80
2018-06-24T11:50:31.100Z,102286.86
2018-06-24T11:53:33.745Z,102291.11
2018-06-24T11:56:36.394Z,102286.59
2018-06-24T11:59:38.735Z,102281.53
2018-06-24T12:02:41.336Z,102281.62
2018-06-24T12:05:43.888Z,102284.01
2018-06-24T12:08:46.415Z,102277.73
2018-06-24T12:11:48.825Z,102272.85
2018-06-24T12:14:51.489Z,102264.68
2018-06-24T12:17:54.044Z,102256.10
2018-06-24T12:20:56.439Z,102258.33
2018-06-24T12:23:58.569Z,102259.56
2018-06-24T12:27:00.689Z,102255.13
2018-06-24T12:30:02.911Z,102255.46
2018-06-24T12:33:05.273Z,102250.29
2018-06-24T12:36:07.387Z,102249.51
2018-06-24T12:39:13.036Z,102248.28
2018-06-24T12:42:15.576Z,102256.30
2018-06-24T12:45:17.979Z,102263.08
2018-06-24T12:48:20.063Z,102257.77
2018-06-24T12:51:22.102Z,102250.19
2018-06-24T12:54:26.139Z,102249.85
2018-06-24T12:57:28.172Z,102245.81
2018-06-24T13:00:30.891Z,102236.19
2018-06-24T13:03:32.331Z,102236.16
2018-06-24T13:06:34.420Z,102235.11
2018-06-24T13:09:36.522Z,102236.88
2018-06-24T13:12:38.535Z,102238.01
2018-06-24T13:15:40.624Z,102228.43
2018-06-24T13:18:42.713Z,102233.24
2018-06-24T13:21:44.768Z,102227.70
2018-06-24T13:24:46.867Z,102226.57
2018-06-24T13:27:48.926Z,102224.79
2018-06-24T13:30:51.122Z,102217.90
2018-06-24T13:33:54.478Z,102216.66
2018-06-24T13:36:56.476Z,102221.73
2018-06-24T13:39:58.635Z,102217.60
2018-06-24T13:43:00.737Z,102223.53
2018-06-24T13:46:02.887Z,102217.43
2018-06-24T13:49:05.077Z,102213.04
2018-06-24T13:52:07.225Z,102204.23
2018-06-24T13:55:09.312Z,102203.03
2018-06-24T13:58:11.366Z,102200.29
2018-06-24T14:01:13.584Z,102196.38
2018-06-24T14:04:15.702Z,102191.28
2018-06-24T14:07:18.631Z,102193.82
2018-06-24T14:10:20.608Z,102191.19
2018-06-24T14:13:23.727Z,102193.39
2018-06-24T14:16:26.809Z,102189.70
2018-06-24T14:19:28.915Z,102183.12
2018-06-24T14:22:30.976Z,102179.69
2018-06-24T14:25:34.039Z,102181.46
2018-06-24T14:28:36.095Z,102181.18
2018-06-24T14:31:38.222Z,102178.46
2018-06-24T14:34:40.261Z,102174.46
2018-06-24T14:37:42.364Z,102174.96
2018-06-24T14:40:44.427Z,102172.05
2018-06-24T14:43:46.480Z,102165.87
2018-06-24T14:46:48.627Z,102164.41
2018-06-24T14:49:50.711Z,102159.07
2018-06-24T14:52:54.800Z,102166.56
2018-06-24T14:55:56.914Z,102162.20
2018-06-24T14:58:58.934Z,102163.82
2018-06-24T15:02:01.071Z,102162.83
2018-06-24T15:08:15.523Z,102164.65
2018-06-24T15:11:17.683Z,102159.70
2018-06-24T15:14:21.816Z,102155.61
2018-06-24T15:17:23.891Z,102158.28
2018-06-24T15:20:26.987Z,102156.30
2018-06-24T15:23:29.181Z,102159.36
2018-06-24T15:26:31.330Z,102155.23
2018-06-24T15:29:33.388Z,102160.83
2018-06-24T15:32:46.728Z,102160.43
2018-06-24T15:35:48.782Z,102163.52
2018-06-24T15:38:50.864Z,102156.15
2018-06-24T15:41:53.069Z,102147.64
2018-06-24T15:44:55.220Z,102152.36
2018-06-24T15:47:57.276Z,102152.30
2018-06-24T15:50:59.437Z,102150.99
2018-06-24T15:54:01.500Z,102152.79
2018-06-24T15:57:03.823Z,102159.43
2018-06-24T16:00:05.789Z,102160.64
2018-06-24T16:03:08.064Z,102155.29
2018-06-24T16:06:10.079Z,102146.34
2018-06-24T16:09:12.730Z,102151.90
2018-06-24T16:12:14.756Z,102147.80
2018-06-24T16:15:16.790Z,102147.36
2018-06-24T16:18:18.987Z,102146.15
2018-06-24T16:21:21.021Z,102145.00
2018-06-24T16:24:24.164Z,102141.39
2018-06-24T16:27:26.123Z,102144.23
2018-06-24T16:30:28.182Z,102143.10
2018-06-24T16:33:30.386Z,102146.19
2018-06-24T16:36:32.487Z,102141.53
2018-06-24T16:39:34.452Z,102144.52
2018-06-24T16:42:37.472Z,102144.32
2018-06-24T16:45:39.566Z,102149.10
2018-06-24T16:48:41.618Z,102141.70
2018-06-24T16:51:43.813Z,102140.34
2018-06-24T16:54:45.935Z,102137.43
2018-06-24T16:57:48.009Z,102136.99
2018-06-24T17:00:51.319Z,102133.75
2018-06-24T17:03:53.504Z,102136.50
2018-06-24T17:06:55.438Z,102139.83
2018-06-24T17:09:57.613Z,102138.14
2018-06-24T17:12:59.733Z,102137.75
2018-06-24T17:16:01.863Z,102138.14
2018-06-24T17:19:09.782Z,102143.95
2018-06-24T17:22:11.892Z,102140.27
2018-06-24T17:25:14.120Z,102147.14
2018-06-24T17:28:16.151Z,102149.68
2018-06-24T17:31:18.240Z,102147.72
2018-06-24T17:34:21.122Z,102148.52
2018-06-24T17:37:23.172Z,102141.44
2018-06-24T17:40:25.227Z,102149.03
2018-06-24T17:43:27.315Z,102155.36
2018-06-24T17:46:29.376Z,102151.09
2018-06-24T17:49:31.450Z,102149.80
2018-06-24T17:52:33.494Z,102148.54
2018-06-24T17:55:35.551Z,102150.95
2018-06-24T17:58:37.569Z,102153.39
2018-06-24T18:01:39.745Z,102148.56
2018-06-24T18:04:41.783Z,102153.31
2018-06-24T18:07:43.771Z,102152.31
2018-06-24T18:10:46.208Z,102153.47
2018-06-24T18:13:49.607Z,102152.94
2018-06-24T18:16:51.644Z,102150.75
2018-06-24T18:19:53.929Z,102149.97
2018-06-24T18:22:56.116Z,102149.04
2018-06-24T18:25:58.213Z,102155.94
2018-06-24T18:29:00.417Z,102155.95
2018-06-24T18:32:02.658Z,102157.38
2018-06-24T18:35:04.756Z,102157.67
2018-06-24T18:38:07.145Z,102155.45
2018-06-24T18:41:09.203Z,102154.44
2018-06-24T18:44:11.263Z,102155.58
2018-06-24T18:47:13.362Z,102164.29
2018-06-24T18:50:15.419Z,102157.46
2018-06-24T18:53:18.272Z,102158.74
2018-06-24T18:56:20.447Z,102157.73
2018-06-24T18:59:22.525Z,102161.90
2018-06-24T19:02:24.813Z,102171.66
2018-06-24T19:05:26.940Z,102179.78
2018-06-24T19:08:30.005Z,102188.99
2018-06-24T19:11:32.064Z,102184.88
2018-06-24T19:14:34.188Z,102185.55
2018-06-24T19:17:36.275Z,102187.05
2018-06-24T19:20:38.427Z,102191.12
2018-06-24T19:23:40.519Z,102192.82
2018-06-24T19:26:42.986Z,102191.40
2018-06-24T19:29:45.507Z,102196.36
2018-06-24T19:32:47.577Z,102201.87
2018-06-24T19:35:50.587Z,102198.48
2018-06-24T19:38:53.090Z,102206.35
2018-06-24T19:41:55.159Z,102211.15
2018-06-24T19:44:57.194Z,102208.62
2018-06-24T19:47:59.487Z,102215.70
2018-06-24T19:51:02.596Z,102214.88
2018-06-24T19:54:05.901Z,102215.92
2018-06-24T19:57:07.993Z,102219.31
2018-06-24T20:00:10.048Z,102219.88
2018-06-24T20:03:12.111Z,102224.27
2018-06-24T20:06:14.575Z,102228.05
2018-06-24T20:09:17.173Z,102231.44
2018-06-24T20:12:20.277Z,102233.52
2018-06-24T20:15:22.758Z,102242.01
2018-06-24T20:18:25.295Z,102243.02
2018-06-24T20:21:27.301Z,102247.58
2018-06-24T20:24:29.782Z,102249.44
2018-06-24T20:27:31.849Z,102253.83
2018-06-24T20:30:34.414Z,102249.37
2018-06-24T20:33:36.795Z,102251.31
2018-06-24T20:36:38.880Z,102253.03
2018-06-24T20:39:41.431Z,102251.38
2018-06-24T20:42:45.878Z,102245.98
2018-06-24T20:45:47.968Z,102246.66
2018-06-24T20:48:50.927Z,102241.70
2018-06-24T20:51:53.000Z,102245.66
2018-06-24T20:54:55.562Z,102246.00
2018-06-24T20:57:57.539Z,102252.76
2018-06-24T21:00:59.984Z,102250.68
2018-06-24T21:04:02.076Z,102253.25
2018-06-24T21:07:04.612Z,102258.51
2018-06-24T21:10:06.724Z,102260.20
2018-06-24T21:13:08.805Z,102262.79
2018-06-24T21:16:11.295Z,102255.20
2018-06-24T21:19:13.314Z,102260.99
2018-06-24T21:22:15.409Z,102263.67
2018-06-24T21:25:17.501Z,102263.98
2018-06-24T21:28:19.655Z,102269.25
2018-06-24T21:31:21.636Z,102260.58
2018-06-24T21:34:23.784Z,102264.57
2018-06-24T21:37:25.839Z,102258.55
2018-06-24T21:40:27.923Z,102252.05
2018-06-24T21:43:29.960Z,102257.96
2018-06-24T21:46:31.975Z,102260.64
2018-06-24T21:49:34.049Z,102265.56
2018-06-24T21:52:36.044Z,102260.36
2018-06-24T21:55:38.151Z,102269.94
2018-06-24T21:58:40.244Z,102271.77
2018-06-24T22:01:43.343Z,102268.15
2018-06-24T22:04:45.381Z,102272.20
2018-06-24T22:07:47.478Z,102282.66
2018-06-24T22:10:49.546Z,102277.67
2018-06-24T22:13:51.609Z,102281.21
2018-06-24T22:16:53.795Z,102285.72
2018-06-24T22:19:56.091Z,102280.33
2018-06-24T22:22:58.164Z,102283.22
2018-06-24T22:26:00.316Z,102286.49
2018-06-24T22:29:02.363Z,102291.03
2018-06-24T22:32:04.540Z,102291.84
2018-06-24T22:35:06.579Z,102293.30
2018-06-24T22:38:08.687Z,102293.83
2018-06-24T22:41:10.799Z,102295.88
2018-06-24T22:44:13.991Z,102294.11
2018-06-24T22:47:16.049Z,102291.71
2018-06-24T22:50:18.052Z,102301.02
2018-06-24T22:53:20.132Z,102298.64
2018-06-24T22:56:22.215Z,102298.38
2018-06-24T23:00:34.324Z,102296.37
2018-06-24T23:03:36.469Z,102301.17
2018-06-24T23:06:38.573Z,102308.09
2018-06-24T23:09:40.620Z,102309.44
2018-06-24T23:12:43.706Z,102311.29
2018-06-24T23:15:45.802Z,102307.15
2018-06-24T23:18:47.863Z,102314.53
2018-06-24T23:21:49.991Z,102311.38
2018-06-24T23:24:52.367Z,102314.20
2018-06-24T23:27:54.352Z,102312.16
2018-06-24T23:30:56.511Z,102318.23
2018-06-24T23:33:58.586Z,102313.64
2018-06-24T23:37:00.659Z,102311.76
2018-06-24T23:40:03.229Z,102313.46
2018-06-24T23:43:05.660Z,102320.52
2018-06-24T23:46:08.076Z,102311.74
2018-06-24T23:49:10.128Z,102313.14
2018-06-24T23:52:12.342Z,102313.04
2018-06-24T23:55:14.527Z,102313.73
2018-06-24T23:58:16.561Z,102314.54
